sensor_id;sensor_type;location;lat;lon;timestamp;temperature;humidity
3736;DHT22;1883;48.202;16.310;2023-07-28T01:07:36;20.40;73.00
3736;DHT22;1883;48.202;16.310;2023-07-28T01:10:08;20.50;72.90
3736;DHT22;1883;48.202;16.310;2023-07-28T01:12:37;20.50;72.90
3736;DHT22;1883;48.202;16.310;2023-07-28T01:15:07;20.50;72.80
3736;DHT22;1883;48.202;16.310;2023-07-28T01:17:34;20.50;72.80
3736;DHT22;1883;48.202;16.310;2023-07-28T01:20:02;20.40;72.70
3736;DHT22;1883;48.202;16.310;2023-07-28T01:22:46;20.50;72.70
3736;DHT22;1883;48.202;16.310;2023-07-28T01:25:20;20.40;72.60
3736;DHT22;1883;48.202;16.310;2023-07-28T01:27:52;20.50;72.60
3736;DHT22;1883;48.202;16.310;2023-07-28T01:30:23;20.40;72.50
3736;DHT22;1883;48.202;16.310;2023-07-28T01:32:54;20.40;72.50
3736;DHT22;1883;48.202;16.310;2023-07-28T02:06:29;20.30;71.80
3736;DHT22;1883;48.202;16.310;2023-07-28T02:08:57;20.30;71.70
3736;DHT22;1883;48.202;16.310;2023-07-28T03:16:48;19.90;71.00
3736;DHT22;1883;48.202;16.310;2023-07-28T03:19:16;19.90;71.10
3736;DHT22;1883;48.202;16.310;2023-07-28T03:21:57;20.00;71.10
3736;DHT22;1883;48.202;16.310;2023-07-28T03:24:41;20.00;71.10
3736;DHT22;1883;48.202;16.310;2023-07-28T03:27:23;19.90;71.10
3736;DHT22;1883;48.202;16.310;2023-07-28T03:29:50;20.00;71.10
3736;DHT22;1883;48.202;16.310;2023-07-28T03:35:32;20.00;71.10
3736;DHT22;1883;48.202;16.310;2023-07-28T03:38:01;19.90;71.10
3736;DHT22;1883;48.202;16.310;2023-07-28T03:40:31;19.90;71.10
3736;DHT22;1883;48.202;16.310;2023-07-28T03:43:12;19.90;71.10
3736;DHT22;1883;48.202;16.310;2023-07-28T03:45:43;19.90;71.10
3736;DHT22;1883;48.202;16.310;2023-07-28T03:48:10;19.90;70.90
3736;DHT22;1883;48.202;16.310;2023-07-28T03:50:45;20.00;71.00
3736;DHT22;1883;48.202;16.310;2023-07-28T03:53:14;19.90;70.90
3736;DHT22;1883;48.202;16.310;2023-07-28T03:55:44;20.00;70.80
3736;DHT22;1883;48.202;16.310;2023-07-28T03:58:13;20.00;70.90
3736;DHT22;1883;48.202;16.310;2023-07-28T04:00:40;19.90;70.90
3736;DHT22;1883;48.202;16.310;2023-07-28T04:03:09;20.00;70.90
3736;DHT22;1883;48.202;16.310;2023-07-28T04:05:45;20.00;70.80
3736;DHT22;1883;48.202;16.310;2023-07-28T04:08:12;20.00;70.80
3736;DHT22;1883;48.202;16.310;2023-07-28T04:10:42;20.00;70.90
3736;DHT22;1883;48.202;16.310;2023-07-28T04:13:23;20.00;70.80
3736;DHT22;1883;48.202;16.310;2023-07-28T04:15:57;20.00;70.80
3736;DHT22;1883;48.202;16.310;2023-07-28T04:18:39;20.00;70.90
3736;DHT22;1883;48.202;16.310;2023-07-28T04:21:11;20.00;70.90
3736;DHT22;1883;48.202;16.310;2023-07-28T04:23:41;20.10;71.00
3736;DHT22;1883;48.202;16.310;2023-07-28T04:26:17;20.10;71.10
3736;DHT22;1883;48.202;16.310;2023-07-28T04:28:47;20.10;71.10
3736;DHT22;1883;48.202;16.310;2023-07-28T04:31:17;20.10;71.10
3736;DHT22;1883;48.202;16.310;2023-07-28T04:34:01;20.10;71.20
3736;DHT22;1883;48.202;16.310;2023-07-28T04:36:32;20.20;71.30
3736;DHT22;1883;48.202;16.310;2023-07-28T04:39:00;20.10;71.30
3736;DHT22;1883;48.202;16.310;2023-07-28T04:41:30;20.10;71.30
3736;DHT22;1883;48.202;16.310;2023-07-28T04:44:19;20.20;71.20
3736;DHT22;1883;48.202;16.310;2023-07-28T04:47:01;20.30;71.20
3736;DHT22;1883;48.202;16.310;2023-07-28T04:49:31;20.20;71.00
3736;DHT22;1883;48.202;16.310;2023-07-28T04:52:14;20.30;71.10
3736;DHT22;1883;48.202;16.310;2023-07-28T04:54:51;20.20;71.10
3736;DHT22;1883;48.202;16.310;2023-07-28T04:57:39;20.20;71.10
3736;DHT22;1883;48.202;16.310;2023-07-28T05:01:02;20.20;71.10
3736;DHT22;1883;48.202;16.310;2023-07-28T05:03:48;20.30;71.00
3736;DHT22;1883;48.202;16.310;2023-07-28T05:06:21;20.30;71.10
3736;DHT22;1883;48.202;16.310;2023-07-28T05:09:23;20.30;71.00
3736;DHT22;1883;48.202;16.310;2023-07-28T05:12:06;20.30;71.00
3736;DHT22;1883;48.202;16.310;2023-07-28T05:15:08;20.30;71.10
3736;DHT22;1883;48.202;16.310;2023-07-28T05:18:08;20.30;71.10
3736;DHT22;1883;48.202;16.310;2023-07-28T05:20:56;20.40;71.20
3736;DHT22;1883;48.202;16.310;2023-07-28T05:23:40;20.40;71.10
3736;DHT22;1883;48.202;16.310;2023-07-28T05:26:59;20.40;71.10
3736;DHT22;1883;48.202;16.310;2023-07-28T05:29:47;20.40;71.20
3736;DHT22;1883;48.202;16.310;2023-07-28T05:32:15;20.40;71.00
3736;DHT22;1883;48.202;16.310;2023-07-28T05:34:57;20.50;71.10
3736;DHT22;1883;48.202;16.310;2023-07-28T05:37:39;20.50;71.20
3736;DHT22;1883;48.202;16.310;2023-07-28T05:40:16;20.50;71.20
3736;DHT22;1883;48.202;16.310;2023-07-28T06:11:21;21.10;72.10
3736;DHT22;1883;48.202;16.310;2023-07-28T06:14:07;21.20;72.30
3736;DHT22;1883;48.202;16.310;2023-07-28T06:16:42;21.20;72.30
3736;DHT22;1883;48.202;16.310;2023-07-28T06:19:24;21.40;72.50
3736;DHT22;1883;48.202;16.310;2023-07-28T06:22:02;21.40;72.50
3736;DHT22;1883;48.202;16.310;2023-07-28T06:24:46;21.50;72.60
3736;DHT22;1883;48.202;16.310;2023-07-28T06:37:00;22.00;73.10
3736;DHT22;1883;48.202;16.310;2023-07-28T06:39:41;22.10;73.20
3736;DHT22;1883;48.202;16.310;2023-07-28T06:42:23;22.00;73.30
3736;DHT22;1883;48.202;16.310;2023-07-28T06:44:56;22.00;73.20
3736;DHT22;1883;48.202;16.310;2023-07-28T06:47:37;22.00;73.30
3736;DHT22;1883;48.202;16.310;2023-07-28T06:50:19;22.10;73.30
3736;DHT22;1883;48.202;16.310;2023-07-28T06:56:36;22.10;73.50
3736;DHT22;1883;48.202;16.310;2023-07-28T06:59:21;22.20;73.60
3736;DHT22;1883;48.202;16.310;2023-07-28T07:01:52;22.30;73.60
3736;DHT22;1883;48.202;16.310;2023-07-28T07:04:42;22.30;73.60
3736;DHT22;1883;48.202;16.310;2023-07-28T07:07:49;22.40;73.70
3736;DHT22;1883;48.202;16.310;2023-07-28T07:10:48;22.60;73.80
3736;DHT22;1883;48.202;16.310;2023-07-28T07:35:38;23.20;74.60
3736;DHT22;1883;48.202;16.310;2023-07-28T07:38:20;23.40;75.00
3736;DHT22;1883;48.202;16.310;2023-07-28T07:41:05;23.40;74.90
3736;DHT22;1883;48.202;16.310;2023-07-28T07:43:36;23.60;75.10
3736;DHT22;1883;48.202;16.310;2023-07-28T07:46:21;23.70;75.10
3736;DHT22;1883;48.202;16.310;2023-07-28T07:48:54;23.60;75.00
3736;DHT22;1883;48.202;16.310;2023-07-28T07:51:42;23.70;75.10
3736;DHT22;1883;48.202;16.310;2023-07-28T07:54:22;23.80;75.40
3736;DHT22;1883;48.202;16.310;2023-07-28T07:57:19;24.10;75.70
3736;DHT22;1883;48.202;16.310;2023-07-28T08:02:23;24.30;75.80
3736;DHT22;1883;48.202;16.310;2023-07-28T08:04:53;24.30;75.70
3736;DHT22;1883;48.202;16.310;2023-07-28T08:07:35;24.40;76.00
3736;DHT22;1883;48.202;16.310;2023-07-28T08:10:38;24.60;76.10
3736;DHT22;1883;48.202;16.310;2023-07-28T08:13:22;24.80;76.10
3736;DHT22;1883;48.202;16.310;2023-07-28T08:16:05;24.90;76.30
3736;DHT22;1883;48.202;16.310;2023-07-28T08:18:49;24.90;76.30
3736;DHT22;1883;48.202;16.310;2023-07-28T08:21:33;25.00;50.70
3736;DHT22;1883;48.202;16.310;2023-07-28T08:24:27;25.00;50.60
3736;DHT22;1883;48.202;16.310;2023-07-28T08:27:09;25.10;99.90
3736;DHT22;1883;48.202;16.310;2023-07-28T08:29:53;25.10;99.90
3736;DHT22;1883;48.202;16.310;2023-07-28T08:32:36;25.20;99.90
3736;DHT22;1883;48.202;16.310;2023-07-28T08:35:19;25.30;99.90
3736;DHT22;1883;48.202;16.310;2023-07-28T08:38:01;25.30;99.90
3736;DHT22;1883;48.202;16.310;2023-07-28T08:47:27;25.70;99.90
3736;DHT22;1883;48.202;16.310;2023-07-28T08:50:21;25.90;99.90
3736;DHT22;1883;48.202;16.310;2023-07-28T08:53:05;25.70;99.90
3736;DHT22;1883;48.202;16.310;2023-07-28T08:55:55;25.80;99.90
3736;DHT22;1883;48.202;16.310;2023-07-28T08:58:47;25.80;99.90
3736;DHT22;1883;48.202;16.310;2023-07-28T09:01:32;26.00;99.90
3736;DHT22;1883;48.202;16.310;2023-07-28T09:38:37;26.80;99.90
3736;DHT22;1883;48.202;16.310;2023-07-28T09:41:19;26.60;99.90
3736;DHT22;1883;48.202;16.310;2023-07-28T09:43:54;26.70;99.90
3736;DHT22;1883;48.202;16.310;2023-07-28T09:46:47;26.60;99.90
3736;DHT22;1883;48.202;16.310;2023-07-28T23:01:11;22.50;72.00
3736;DHT22;1883;48.202;16.310;2023-07-28T23:03:52;22.50;71.90
3736;DHT22;1883;48.202;16.310;2023-07-28T23:07:01;22.50;71.90
3736;DHT22;1883;48.202;16.310;2023-07-28T23:09:46;22.50;71.80
3736;DHT22;1883;48.202;16.310;2023-07-28T23:12:31;22.50;71.80
3736;DHT22;1883;48.202;16.310;2023-07-28T23:15:14;22.50;71.80
3736;DHT22;1883;48.202;16.310;2023-07-28T23:24:47;22.40;71.70
3736;DHT22;1883;48.202;16.310;2023-07-28T23:27:37;22.40;71.70
3736;DHT22;1883;48.202;16.310;2023-07-28T23:30:32;22.50;71.70
3736;DHT22;1883;48.202;16.310;2023-07-28T23:33:19;22.50;71.60
3736;DHT22;1883;48.202;16.310;2023-07-28T23:36:10;22.50;71.60
3736;DHT22;1883;48.202;16.310;2023-07-28T23:39:08;22.40;71.60
3736;DHT22;1883;48.202;16.310;2023-07-28T23:51:29;22.40;71.50
3736;DHT22;1883;48.202;16.310;2023-07-28T23:53:59;22.30;71.50
3736;DHT22;1883;48.202;16.310;2023-07-28T23:56:48;22.20;71.40
3736;DHT22;1883;48.202;16.310;2023-07-28T23:59:30;22.30;71.40
